Time;durP1;ratioP1;P1;durP2;ratioP2;P2;SDS_P1;SDS_P2;PMS_P1;PMS_P2;Temp;Humidity;BMP_temperature;BMP_pressure;BME280_temperature;BME280_humidity;BME280_pressure;Samples;Min_cycle;Max_cycle;Signal;HPM_P1;HPM_P2
2022/04/08 00:00:59;;;;;;;18.45;2.63;;;9.50;99.90;;;;;;6094942;23;20022;-87
2022/04/08 00:03:25;;;;;;;26.88;3.22;;;9.10;99.90;;;;;;6093595;23;20018;-87
2022/04/08 00:05:54;;;;;;;11.80;2.50;;;8.50;99.90;;;;;;6093563;23;20018;-86
2022/04/08 00:08:23;;;;;;;23.00;3.22;;;9.10;99.90;;;;;;6066732;23;20019;-86
2022/04/08 00:10:49;;;;;;;28.40;3.38;;;8.70;99.90;;;;;;6068999;23;20347;-87
2022/04/08 00:13:17;;;;;;;19.73;2.80;;;8.40;99.90;;;;;;6094115;23;20117;-86
2022/04/08 00:15:43;;;;;;;10.35;2.60;;;8.70;99.90;;;;;;6093797;23;20010;-86
2022/04/08 00:18:08;;;;;;;18.30;3.05;;;9.80;99.90;;;;;;6043738;23;20042;-86
2022/04/08 00:20:35;;;;;;;16.95;2.85;;;8.60;99.90;;;;;;6066470;23;20093;-86
2022/04/08 00:23:03;;;;;;;15.00;2.28;;;11.70;99.90;;;;;;6093469;23;20437;-86
2022/04/08 00:25:29;;;;;;;22.52;2.95;;;8.30;99.90;;;;;;6093295;23;20461;-86
2022/04/08 00:27:55;;;;;;;13.13;2.45;;;7.50;99.90;;;;;;6090233;23;20105;-86
2022/04/08 00:30:21;;;;;;;13.73;1.98;;;9.70;99.90;;;;;;6093824;23;20055;-86
2022/04/08 00:32:46;;;;;;;9.10;2.53;;;9.50;99.90;;;;;;6067747;23;20018;-86
2022/04/08 00:35:12;;;;;;;8.70;2.17;;;9.40;99.90;;;;;;6092624;23;20053;-86
2022/04/08 00:37:39;;;;;;;14.32;2.20;;;9.20;99.90;;;;;;6093135;23;20097;-87
2022/04/08 00:40:06;;;;;;;31.38;2.13;;;9.60;99.90;;;;;;6093880;23;20089;-86
2022/04/08 00:42:32;;;;;;;5.10;1.60;;;9.40;99.90;;;;;;6043755;23;20022;-85
2022/04/08 00:44:58;;;;;;;9.00;1.80;;;8.20;99.90;;;;;;6092656;23;20074;-85
2022/04/08 00:47:23;;;;;;;8.88;1.92;;;7.50;99.90;;;;;;6089808;23;20034;-85
2022/04/08 00:49:51;;;;;;;5.43;1.23;;;8.60;99.90;;;;;;6090087;23;20446;-85
2022/04/08 00:52:17;;;;;;;;;;;9.00;99.90;;;;;;6089497;23;20445;-85
2022/04/08 00:54:44;;;;;;;17.00;1.90;;;8.70;99.90;;;;;;6091719;23;19917;-84
2022/04/08 00:57:10;;;;;;;5.75;1.67;;;8.60;99.90;;;;;;6093258;23;20338;-84
2022/04/08 00:59:36;;;;;;;6.80;1.60;;;10.50;99.90;;;;;;6092910;23;20214;-84
2022/04/08 01:02:01;;;;;;;22.52;2.33;;;8.60;99.90;;;;;;6066374;23;20066;-84
2022/04/08 01:04:27;;;;;;;19.90;2.42;;;8.80;99.90;;;;;;6092529;23;20089;-83
2022/04/08 01:06:54;;;;;;;18.90;2.42;;;8.50;99.90;;;;;;6066858;23;20090;-83
2022/04/08 01:09:21;;;;;;;7.93;2.42;;;10.90;99.90;;;;;;6092146;23;20029;-84
2022/04/08 01:11:47;;;;;;;14.07;7.63;;;10.40;99.90;;;;;;6067519;23;20024;-83
2022/04/08 01:14:14;;;;;;;11.68;2.17;;;9.60;99.90;;;;;;6044096;23;20525;-83
2022/04/08 01:16:41;;;;;;;13.13;2.30;;;10.20;99.90;;;;;;6091311;23;20023;-83
2022/04/08 01:19:07;;;;;;;19.95;2.28;;;8.80;99.90;;;;;;6066885;23;20032;-82
2022/04/08 01:21:33;;;;;;;11.70;4.13;;;7.30;99.90;;;;;;6093272;23;20014;-83
2022/04/08 01:24:01;;;;;;;10.25;1.73;;;10.60;99.90;;;;;;6094410;23;20412;-82
2022/04/08 01:26:27;;;;;;;13.90;2.92;;;5.80;99.90;;;;;;6092342;23;20085;-83
2022/04/08 01:28:54;;;;;;;12.68;1.88;;;9.10;99.90;;;;;;6093592;23;20352;-83
2022/04/08 01:31:20;;;;;;;12.70;2.10;;;9.20;99.90;;;;;;6068032;23;20410;-83
2022/04/08 01:33:46;;;;;;;16.98;2.40;;;8.10;99.90;;;;;;6092123;23;20215;-83
2022/04/08 01:36:11;;;;;;;8.13;1.90;;;7.40;99.90;;;;;;6091634;23;20101;-84
2022/04/08 01:38:37;;;;;;;11.77;1.75;;;8.30;99.90;;;;;;6092191;23;20081;-84
2022/04/08 01:41:03;;;;;;;10.38;1.88;;;8.20;99.90;;;;;;6090674;23;20183;-84
2022/04/08 01:43:29;;;;;;;10.90;2.65;;;;;;;;;;6092057;23;20018;-84
2022/04/08 01:45:55;;;;;;;12.90;2.05;;;7.40;99.90;;;;;;6093410;23;20026;-84
2022/04/08 01:48:21;;;;;;;22.23;3.00;;;;;;;;;;6092951;23;20018;-84
2022/04/08 01:50:47;;;;;;;16.58;2.75;;;6.70;99.90;;;;;;6093099;23;20073;-85
2022/04/08 01:53:15;;;;;;;12.35;2.55;;;;;;;;;;6066694;23;20053;-83
2022/04/08 01:55:41;;;;;;;16.70;2.38;;;8.10;99.90;;;;;;6066978;23;20026;-85
2022/04/08 01:58:07;;;;;;;16.58;2.40;;;8.80;99.90;;;;;;6093640;23;20399;-84
2022/04/08 02:00:33;;;;;;;17.13;2.50;;;7.90;99.90;;;;;;6066434;23;20074;-84
2022/04/08 02:03:00;;;;;;;21.67;2.78;;;7.00;99.90;;;;;;6090513;23;20116;-84
2022/04/08 02:05:26;;;;;;;19.38;2.55;;;7.70;99.90;;;;;;6045000;23;20526;-84
2022/04/08 02:07:53;;;;;;;23.73;2.30;;;8.00;99.90;;;;;;6094437;23;20026;-84
2022/04/08 02:10:19;;;;;;;17.70;2.90;;;;;;;;;;6046480;23;20338;-84
2022/04/08 02:12:45;;;;;;;6.95;1.83;;;6.80;99.90;;;;;;6093436;23;20022;-84
2022/04/08 02:15:11;;;;;;;18.45;3.13;;;8.70;99.90;;;;;;6069309;23;20026;-84
2022/04/08 02:17:37;;;;;;;17.65;2.33;;;7.70;99.90;;;;;;6094292;23;20053;-84
2022/04/08 02:20:04;;;;;;;19.80;2.88;;;7.20;99.90;;;;;;6094574;23;20188;-84
2022/04/08 02:22:31;;;;;;;23.02;2.75;;;7.30;99.90;;;;;;6069991;23;20483;-84
2022/04/08 02:24:58;;;;;;;10.82;2.55;;;6.00;99.90;;;;;;6069781;23;20029;-84
2022/04/08 02:27:26;;;;;;;15.45;2.67;;;6.90;99.90;;;;;;6069921;23;20496;-84
2022/04/08 02:29:52;;;;;;;15.70;2.80;;;6.30;99.90;;;;;;6069762;23;20238;-83
2022/04/08 02:32:18;;;;;;;32.25;3.80;;;8.50;99.90;;;;;;6068269;23;20033;-84
2022/04/08 02:34:44;;;;;;;29.55;2.60;;;10.20;99.90;;;;;;6094389;23;20532;-84
2022/04/08 02:37:10;;;;;;;20.45;3.08;;;7.30;99.90;;;;;;6069711;23;20097;-85
2022/04/08 02:39:35;;;;;;;23.50;2.90;;;7.50;99.90;;;;;;6094533;23;20053;-85
2022/04/08 02:42:01;;;;;;;21.30;3.03;;;5.60;99.90;;;;;;6069543;23;20018;-83
2022/04/08 02:44:30;;;;;;;10.55;1.98;;;8.00;99.90;;;;;;6068423;23;20338;-83
2022/04/08 02:46:57;;;;;;;16.67;2.70;;;6.60;99.90;;;;;;6093860;23;20061;-82
2022/04/08 02:49:23;;;;;;;15.32;3.03;;;;;;;;;;6068403;23;20045;-83
2022/04/08 02:51:49;;;;;;;14.35;2.80;;;8.70;99.90;;;;;;6093096;23;20018;-84
2022/04/08 02:54:15;;;;;;;21.67;2.58;;;6.30;99.90;;;;;;6094467;23;20044;-83
2022/04/08 02:56:42;;;;;;;17.88;2.95;;;6.50;99.90;;;;;;6094561;23;20026;-83
2022/04/08 02:59:08;;;;;;;14.18;2.97;;;6.50;99.90;;;;;;6093507;23;20209;-83
2022/04/08 03:01:35;;;;;;;20.42;2.83;;;;;;;;;;6094383;23;20380;-84
2022/04/08 03:04:01;;;;;;;27.30;3.17;;;8.60;99.90;;;;;;6091871;23;20018;-84
2022/04/08 03:06:28;;;;;;;22.92;3.67;;;;;;;;;;6069783;23;20036;-84
2022/04/08 03:08:53;;;;;;;19.33;2.78;;;7.10;99.90;;;;;;6093801;23;20018;-84
2022/04/08 03:11:20;;;;;;;14.85;2.90;;;;;;;;;;6070064;23;20093;-84
2022/04/08 03:13:45;;;;;;;28.10;3.40;;;6.50;99.90;;;;;;6093869;23;20097;-84
2022/04/08 03:16:11;;;;;;;17.30;3.20;;;5.50;99.90;;;;;;6092850;23;20058;-83
2022/04/08 03:18:37;;;;;;;28.52;3.45;;;6.80;99.90;;;;;;6094889;23;20018;-84
2022/04/08 03:21:03;;;;;;;19.83;3.03;;;9.30;99.90;;;;;;6094403;23;20393;-83
2022/04/08 03:23:28;;;;;;;22.25;2.85;;;6.50;99.90;;;;;;6094692;23;20054;-84
2022/04/08 03:25:54;;;;;;;25.13;3.50;;;5.20;99.90;;;;;;6094577;23;20018;-84
2022/04/08 03:28:20;;;;;;;26.58;3.63;;;5.70;99.90;;;;;;6095586;23;20022;-84
2022/04/08 03:30:46;;;;;;;20.48;3.67;;;6.70;99.90;;;;;;6069015;23;20094;-83
2022/04/08 03:33:12;;;;;;;25.52;3.50;;;6.90;99.90;;;;;;6094367;23;20022;-83
2022/04/08 03:35:38;;;;;;;21.35;3.45;;;;;;;;;;6093741;23;20417;-83
2022/04/08 03:38:04;;;;;;;30.85;4.03;;;5.90;99.90;;;;;;6094459;23;20022;-84
2022/04/08 03:40:31;;;;;;;17.45;2.95;;;6.90;99.90;;;;;;6067501;23;20053;-84
2022/04/08 03:42:56;;;;;;;19.83;3.03;;;3.90;99.90;;;;;;6091653;23;20030;-86
2022/04/08 03:45:24;;;;;;;21.00;3.42;;;8.00;99.90;;;;;;6044366;23;20101;-83
2022/04/08 03:47:50;;;;;;;24.55;3.50;;;6.40;99.90;;;;;;6092630;23;20330;-83
2022/04/08 03:50:16;;;;;;;39.10;4.05;;;6.90;99.90;;;;;;6093391;23;20035;-83
2022/04/08 03:52:42;;;;;;;26.88;4.05;;;6.80;99.90;;;;;;6094710;23;20127;-83
2022/04/08 03:55:09;;;;;;;32.55;4.40;;;5.90;99.90;;;;;;6093817;23;20391;-83
2022/04/08 03:57:35;;;;;;;26.98;5.18;;;5.50;99.90;;;;;;6094309;23;20105;-83
2022/04/08 04:00:00;;;;;;;15.48;4.05;;;5.70;99.90;;;;;;6093832;23;20106;-81
2022/04/08 04:02:26;;;;;;;22.25;2.88;;;7.20;99.90;;;;;;6093398;23;20027;-81
2022/04/08 04:04:55;;;;;;;11.50;2.63;;;6.20;99.90;;;;;;6093847;23;20018;-81
2022/04/08 04:07:20;;;;;;;16.85;2.47;;;5.50;99.90;;;;;;6068437;23;20124;-82
2022/04/08 04:09:46;;;;;;;11.40;2.20;;;7.20;99.90;;;;;;6093625;23;20026;-84
2022/04/08 04:12:12;;;;;;;8.98;2.08;;;7.20;99.90;;;;;;6094817;23;20022;-83
2022/04/08 04:14:38;;;;;;;8.00;2.42;;;;;;;;;;6068159;23;20025;-86
2022/04/08 04:17:04;;;;;;;11.25;2.45;;;8.00;99.90;;;;;;6066896;23;20101;-89
2022/04/08 04:19:30;;;;;;;9.00;2.20;;;6.60;99.90;;;;;;6091984;23;20434;-84
2022/04/08 04:21:56;;;;;;;9.13;2.28;;;4.40;99.90;;;;;;6093983;23;20023;-84
2022/04/08 04:24:21;;;;;;;10.68;2.53;;;6.20;99.90;;;;;;6094519;23;20291;-85
2022/04/08 04:26:47;;;;;;;9.30;2.53;;;7.00;99.90;;;;;;6091982;23;20057;-82
2022/04/08 04:29:13;;;;;;;13.80;2.97;;;;;;;;;;6094024;23;20085;-84
2022/04/08 04:31:39;;;;;;;6.72;2.65;;;6.30;99.90;;;;;;6067913;23;20037;-82
2022/04/08 04:34:05;;;;;;;14.65;2.60;;;6.60;99.90;;;;;;6092985;23;20313;-82
2022/04/08 04:36:31;;;;;;;12.32;2.55;;;6.40;99.90;;;;;;6092726;23;20098;-82
2022/04/08 04:38:56;;;;;;;11.43;2.65;;;6.70;99.90;;;;;;6068477;23;20138;-81
2022/04/08 04:41:22;;;;;;;10.65;3.05;;;6.60;99.90;;;;;;6094433;23;20022;-81
2022/04/08 04:43:48;;;;;;;5.30;2.03;;;5.70;99.90;;;;;;6093946;23;20021;-82
2022/04/08 04:46:13;;;;;;;11.55;2.65;;;6.50;99.90;;;;;;6068303;23;20018;-82
2022/04/08 04:48:39;;;;;;;11.82;2.50;;;8.80;99.90;;;;;;6094444;23;20033;-81
2022/04/08 04:51:05;;;;;;;9.02;2.20;;;;;;;;;;6092067;23;20022;-83
2022/04/08 04:53:31;;;;;;;11.45;2.47;;;5.80;99.90;;;;;;6068184;23;20434;-82
2022/04/08 04:55:58;;;;;;;10.02;3.00;;;6.40;99.90;;;;;;6094028;23;20019;-82
2022/04/08 04:58:24;;;;;;;7.85;3.20;;;6.20;99.90;;;;;;6094641;23;20097;-82
2022/04/08 05:00:50;;;;;;;8.43;2.63;;;4.30;99.90;;;;;;6092477;23;20108;-83
2022/04/08 05:03:18;;;;;;;7.40;2.45;;;4.50;99.90;;;;;;6068648;23;20023;-82
2022/04/08 05:05:44;;;;;;;13.73;2.88;;;5.80;99.90;;;;;;6094030;23;20018;-83
2022/04/08 05:08:10;;;;;;;11.00;3.00;;;5.20;99.90;;;;;;6044209;23;20133;-83
2022/04/08 05:10:35;;;;;;;11.95;2.85;;;6.40;99.90;;;;;;6093776;23;20430;-82
2022/04/08 05:13:01;;;;;;;7.53;2.65;;;7.30;99.90;;;;;;6093845;23;20077;-83
2022/04/08 05:15:28;;;;;;;13.88;3.38;;;6.70;99.90;;;;;;6093770;23;20454;-85
2022/04/08 05:17:55;;;;;;;9.82;3.65;;;;;;;;;;6089096;23;20022;-83
2022/04/08 05:20:21;;;;;;;10.13;3.78;;;8.10;99.90;;;;;;6092925;23;20026;-83
2022/04/08 05:22:46;;;;;;;13.00;4.35;;;10.10;99.90;;;;;;6094185;23;20354;-83
2022/04/08 05:25:12;;;;;;;19.60;3.80;;;6.80;99.90;;;;;;6093455;23;20089;-83
2022/04/08 05:27:41;;;;;;;12.23;4.32;;;7.50;99.90;;;;;;6091520;23;20121;-83
2022/04/08 05:30:08;;;;;;;15.43;4.28;;;5.60;99.90;;;;;;6093375;23;20030;-84
2022/04/08 05:32:34;;;;;;;19.13;4.65;;;6.40;99.90;;;;;;6067173;23;20018;-84
2022/04/08 05:35:00;;;;;;;17.98;4.65;;;3.80;99.90;;;;;;6067717;23;20074;-82
2022/04/08 05:37:28;;;;;;;11.20;3.63;;;;;;;;;;6093842;23;20057;-83
2022/04/08 05:39:54;;;;;;;24.90;4.57;;;7.60;99.90;;;;;;6093354;23;20054;-83
2022/04/08 05:42:20;;;;;;;15.00;4.32;;;6.40;99.90;;;;;;6067679;23;20022;-83
2022/04/08 05:44:46;;;;;;;18.58;4.15;;;7.20;99.90;;;;;;6091995;23;20033;-83
2022/04/08 05:47:12;;;;;;;14.48;3.45;;;;;;;;;;6067596;23;20465;-82
2022/04/08 05:49:38;;;;;;;19.35;4.03;;;6.70;99.90;;;;;;6093932;23;20093;-84
2022/04/08 05:52:07;;;;;;;19.13;5.30;;;7.80;99.90;;;;;;6065893;23;20023;-83
2022/04/08 05:54:32;;;;;;;13.57;5.00;;;6.60;99.90;;;;;;6092165;23;20414;-82
2022/04/08 05:57:00;;;;;;;17.90;5.28;;;7.00;99.90;;;;;;6067293;23;20050;-83
2022/04/08 05:59:29;;;;;;;;;;;7.70;99.90;;;;;;6094683;23;20161;-83
2022/04/08 06:01:55;;;;;;;14.50;4.20;;;7.50;99.90;;;;;;6066904;23;19917;-83
2022/04/08 06:04:21;;;;;;;14.90;4.47;;;7.40;99.90;;;;;;6093742;23;20025;-83
2022/04/08 06:06:47;;;;;;;19.80;4.70;;;10.30;99.90;;;;;;6067803;23;20026;-84
2022/04/08 06:09:13;;;;;;;17.67;5.53;;;7.80;99.90;;;;;;6093909;23;20018;-84
2022/04/08 06:11:42;;;;;;;13.45;4.47;;;5.80;99.90;;;;;;6068162;23;20022;-84
2022/04/08 06:14:07;;;;;;;14.82;4.80;;;7.20;99.90;;;;;;6093646;23;20054;-83
2022/04/08 06:16:33;;;;;;;14.75;4.95;;;6.90;99.90;;;;;;6067797;23;20022;-84
2022/04/08 06:18:59;;;;;;;12.25;3.97;;;9.90;99.90;;;;;;6093690;23;20488;-84
2022/04/08 06:21:27;;;;;;;12.50;4.60;;;7.30;99.90;;;;;;6093691;23;20465;-84
2022/04/08 06:23:53;;;;;;;15.25;4.32;;;;;;;;;;6068998;23;20042;-88
2022/04/08 06:26:19;;;;;;;16.48;4.78;;;7.90;99.90;;;;;;6068365;23;20294;-85
2022/04/08 06:28:44;;;;;;;20.45;5.25;;;7.40;99.90;;;;;;6094171;23;20028;-84
2022/04/08 06:31:10;;;;;;;13.55;4.93;;;7.70;99.90;;;;;;6093315;23;20077;-83
2022/04/08 06:33:37;;;;;;;12.38;4.75;;;;;;;;;;6068771;23;20062;-83
2022/04/08 06:36:03;;;;;;;17.50;6.35;;;6.20;99.90;;;;;;6092599;23;20097;-83
2022/04/08 06:38:29;;;;;;;14.05;4.32;;;8.50;99.90;;;;;;6094266;23;20065;-83
2022/04/08 06:40:54;;;;;;;10.80;4.40;;;7.30;99.90;;;;;;6093768;23;20168;-84
2022/04/08 06:43:20;;;;;;;13.50;5.57;;;8.00;99.90;;;;;;6093668;23;20018;-84
2022/04/08 06:45:47;;;;;;;14.98;7.15;;;7.90;99.90;;;;;;6067950;23;20094;-84
2022/04/08 06:48:15;;;;;;;16.48;5.03;;;9.90;99.90;;;;;;6093159;23;20090;-83
2022/04/08 06:50:41;;;;;;;20.83;4.78;;;7.10;99.90;;;;;;6095630;23;20018;-83
2022/04/08 06:53:07;;;;;;;16.52;4.65;;;8.00;99.90;;;;;;6095172;23;20025;-84
2022/04/08 06:55:33;;;;;;;10.95;4.50;;;10.10;99.90;;;;;;6095461;23;20042;-83
2022/04/08 06:58:01;;;;;;;11.93;4.40;;;7.90;99.90;;;;;;6095111;23;20086;-83
2022/04/08 07:00:27;;;;;;;15.02;4.55;;;8.50;99.90;;;;;;6070154;23;20133;-83
2022/04/08 07:02:53;;;;;;;14.85;5.30;;;9.60;99.90;;;;;;6095273;23;20030;-84
2022/04/08 07:05:18;;;;;;;13.73;4.45;;;9.10;99.90;;;;;;6068856;23;20139;-83
2022/04/08 07:07:47;;;;;;;10.82;4.35;;;9.10;99.90;;;;;;6064986;23;20023;-83
2022/04/08 07:10:16;;;;;;;11.05;4.78;;;8.60;99.90;;;;;;6066049;23;20038;-83
2022/04/08 07:12:41;;;;;;;10.20;4.65;;;8.50;99.90;;;;;;6065185;23;20023;-83
2022/04/08 07:15:08;;;;;;;15.75;5.57;;;7.90;99.90;;;;;;6066099;23;20427;-83
2022/04/08 07:17:35;;;;;;;23.55;6.50;;;7.70;99.90;;;;;;6064490;23;20058;-84
2022/04/08 07:20:01;;;;;;;16.55;6.30;;;8.50;99.90;;;;;;6065277;23;20073;-84
2022/04/08 07:22:28;;;;;;;13.05;5.35;;;9.30;99.90;;;;;;6066544;23;20034;-84
2022/04/08 07:24:54;;;;;;;19.08;5.60;;;8.10;99.90;;;;;;6064756;23;20404;-83
2022/04/08 07:27:20;;;;;;;12.02;4.68;;;8.60;99.90;;;;;;6064730;23;20079;-84
2022/04/08 07:29:47;;;;;;;20.77;4.85;;;9.60;99.90;;;;;;6066373;23;20018;-83
2022/04/08 07:32:20;;;;;;;14.13;4.50;;;9.30;99.90;;;;;;6063961;23;20068;-83
2022/04/08 07:34:48;;;;;;;13.05;4.20;;;8.10;99.90;;;;;;6064239;23;20023;-83
2022/04/08 07:37:14;;;;;;;10.90;4.68;;;9.20;99.90;;;;;;6064408;23;20339;-83
2022/04/08 07:39:42;;;;;;;12.55;6.03;;;10.60;99.90;;;;;;6040556;23;20026;-83
2022/04/08 07:42:08;;;;;;;;;;;13.60;99.90;;;;;;6066472;23;20327;-83
2022/04/08 07:44:33;;;;;;;28.58;7.25;;;11.50;99.90;;;;;;6066198;23;19917;-83
2022/04/08 07:46:59;;;;;;;20.67;10.82;;;12.10;99.90;;;;;;6066325;23;20019;-83
2022/04/08 07:49:25;;;;;;;23.17;7.90;;;12.80;99.90;;;;;;6066239;23;20018;-83
2022/04/08 07:51:50;;;;;;;1502.72;751.15;;;12.10;99.90;;;;;;6040242;23;20057;-83
2022/04/08 07:54:16;;;;;;;29.63;19.75;;;10.60;99.90;;;;;;6065483;23;20033;-82
2022/04/08 07:56:42;;;;;;;21.88;9.25;;;12.50;99.90;;;;;;6066066;23;20023;-82
2022/04/08 07:59:08;;;;;;;24.92;5.57;;;10.40;99.90;;;;;;6064098;23;20019;-82
2022/04/08 08:01:33;;;;;;;24.42;7.38;;;9.10;99.90;;;;;;6065842;23;20023;-83
2022/04/08 08:03:59;;;;;;;25.75;7.35;;;10.30;99.90;;;;;;6065796;23;20018;-83
2022/04/08 08:06:25;;;;;;;21.77;8.40;;;10.40;99.90;;;;;;6065193;23;20030;-83
2022/04/08 08:08:50;;;;;;;25.77;13.32;;;13.90;99.90;;;;;;6090099;23;20065;-83
2022/04/08 08:11:18;;;;;;;26.48;10.30;;;12.40;99.90;;;;;;6094264;23;20148;-83
2022/04/08 08:13:44;;;;;;;29.42;13.77;;;13.20;99.90;;;;;;6095333;23;20026;-84
2022/04/08 08:16:15;;;;;;;25.95;12.02;;;14.30;99.90;;;;;;6093756;23;20097;-84
2022/04/08 08:18:41;;;;;;;18.85;9.13;;;14.00;99.90;;;;;;6095424;23;20147;-83
2022/04/08 08:21:07;;;;;;;35.13;12.85;;;12.80;99.90;;;;;;6092117;23;20018;-82
2022/04/08 08:23:33;;;;;;;28.10;15.95;;;14.60;99.90;;;;;;6068991;23;20386;-84
2022/04/08 08:25:58;;;;;;;35.03;12.00;;;13.90;99.90;;;;;;6094779;23;20026;-83
2022/04/08 08:28:24;;;;;;;49.08;38.45;;;13.90;99.90;;;;;;6068787;23;20398;-83
2022/04/08 08:30:50;;;;;;;17.48;9.48;;;14.70;99.90;;;;;;6069454;23;20018;-84
2022/04/08 08:33:15;;;;;;;32.83;21.88;;;13.70;99.90;;;;;;6093838;23;20018;-83
2022/04/08 08:35:41;;;;;;;16.52;6.25;;;14.30;99.90;;;;;;6068449;23;20015;-84
2022/04/08 08:38:07;;;;;;;12.32;5.80;;;13.20;99.90;;;;;;6068766;23;20128;-82
2022/04/08 08:40:34;;;;;;;14.15;4.75;;;13.50;99.90;;;;;;6094772;23;20018;-82
2022/04/08 08:43:00;;;;;;;9.90;3.03;;;12.70;99.90;;;;;;6094637;23;20014;-82
2022/04/08 08:45:29;;;;;;;10.57;6.53;;;14.10;99.90;;;;;;6068654;23;20082;-83
2022/04/08 08:48:02;;;;;;;10.70;4.13;;;14.40;99.90;;;;;;6094199;23;20019;-82
2022/04/08 08:50:30;;;;;;;82.00;73.72;;;14.00;99.90;;;;;;6093940;23;20114;-82
2022/04/08 08:52:57;;;;;;;;;;;14.20;99.90;;;;;;6069435;23;20489;-83
2022/04/08 08:55:24;;;;;;;63.38;57.78;;;12.90;99.90;;;;;;6093832;23;19917;-83
2022/04/08 08:57:51;;;;;;;10.23;7.63;;;13.30;99.90;;;;;;6094554;23;20083;-83
2022/04/08 09:00:18;;;;;;;9.43;2.47;;;13.40;99.90;;;;;;6068677;23;20109;-83
2022/04/08 09:02:48;;;;;;;14.20;2.30;;;14.80;99.90;;;;;;6044264;23;20516;-83
2022/04/08 09:05:22;;;;;;;11.55;9.82;;;14.80;99.90;;;;;;6093678;23;20025;-82
2022/04/08 09:07:59;;;;;;;12.15;2.40;;;13.70;99.90;;;;;;6094129;23;20019;-83
2022/04/08 09:10:46;;;;;;;5.78;1.92;;;12.00;99.90;;;;;;6044671;23;20097;-83
2022/04/08 09:13:16;;;;;;;9.20;2.05;;;12.00;99.90;;;;;;6093336;23;20088;-84
2022/04/08 09:15:51;;;;;;;95.80;87.75;;;12.40;99.90;;;;;;6094578;23;20017;-84
2022/04/08 09:18:17;;;;;;;16.98;7.30;;;11.80;99.90;;;;;;6067561;23;20022;-84
2022/04/08 09:20:49;;;;;;;9.52;2.75;;;11.00;99.90;;;;;;6094036;23;20312;-85
2022/04/08 09:23:19;;;;;;;38.35;5.85;;;11.20;99.90;;;;;;6093515;23;20011;-84
2022/04/08 09:25:48;;;;;;;13.13;2.53;;;10.80;99.90;;;;;;6094664;23;20018;-85
2022/04/08 09:28:15;;;;;;;11.48;2.55;;;11.60;99.90;;;;;;6094062;23;20090;-85
2022/04/08 09:30:47;;;;;;;19.38;13.50;;;12.10;99.90;;;;;;6068938;23;20346;-85
2022/04/08 09:33:21;;;;;;;28.58;13.57;;;11.80;99.90;;;;;;6067627;23;20398;-86
2022/04/08 09:35:48;;;;;;;9.48;2.75;;;11.20;99.90;;;;;;6094068;23;20022;-86
2022/04/08 09:38:27;;;;;;;23.10;3.63;;;11.30;99.90;;;;;;6068332;23;20343;-86
2022/04/08 09:41:08;;;;;;;11.55;3.75;;;11.50;99.90;;;;;;6094524;23;20014;-86
2022/04/08 09:43:36;;;;;;;12.43;2.85;;;11.20;99.90;;;;;;6094494;23;20022;-87
2022/04/08 09:46:18;;;;;;;16.92;4.70;;;12.20;99.90;;;;;;6094370;23;20078;-85
2022/04/08 09:48:44;;;;;;;13.55;3.30;;;12.90;99.90;;;;;;6094657;23;20105;-86
2022/04/08 09:51:21;;;;;;;13.40;3.70;;;14.00;99.90;;;;;;6093531;23;20046;-85
2022/04/08 09:53:55;;;;;;;15.38;9.35;;;14.80;99.90;;;;;;6094303;23;20026;-86
2022/04/08 09:56:23;;;;;;;13.88;3.33;;;15.40;99.90;;;;;;6044358;23;20022;-86
2022/04/08 09:59:10;;;;;;;8.43;2.22;;;15.70;99.90;;;;;;6045200;23;20090;-87
2022/04/08 10:01:42;;;;;;;9.45;2.75;;;14.30;99.90;;;;;;6068744;23;20080;-87
2022/04/08 10:04:11;;;;;;;11.40;4.13;;;15.20;99.90;;;;;;6095054;23;20022;-88
2022/04/08 10:06:39;;;;;;;8.18;2.28;;;15.00;99.90;;;;;;6070106;23;20018;-89
2022/04/08 10:09:07;;;;;;;10.50;1.85;;;15.30;99.90;;;;;;6094595;23;20023;-87
2022/04/08 10:11:40;;;;;;;9.45;2.03;;;15.00;99.90;;;;;;6094753;23;20018;-88
2022/04/08 10:14:22;;;;;;;11.38;3.10;;;15.40;99.90;;;;;;6094864;23;20025;-87
2022/04/08 10:16:52;;;;;;;24.92;20.98;;;15.50;99.90;;;;;;6069472;23;20023;-89
2022/04/08 10:19:24;;;;;;;14.55;6.05;;;15.90;99.90;;;;;;6046703;23;20126;-88
2022/04/08 10:21:53;;;;;;;11.10;2.20;;;16.80;99.90;;;;;;6069563;23;20033;-88
2022/04/08 10:24:27;;;;;;;5.43;1.58;;;17.40;99.90;;;;;;6046701;23;20025;-90
2022/04/08 10:26:58;;;;;;;7.05;1.75;;;17.40;99.90;;;;;;6095721;23;20323;-90
2022/04/08 10:29:24;;;;;;;49.50;36.10;;;17.90;99.90;;;;;;6070987;23;20097;-92
2022/04/08 10:31:58;;;;;;;11.48;3.53;;;17.90;99.90;;;;;;6096442;23;20022;-89
2022/04/08 10:34:25;;;;;;;36.72;27.77;;;17.50;99.90;;;;;;6096226;23;20023;-90
2022/04/08 10:36:52;;;;;;;10.52;2.08;;;17.40;99.90;;;;;;6097016;23;20025;-89
2022/04/08 10:39:22;;;;;;;12.18;2.03;;;17.50;99.90;;;;;;6071042;23;20010;-90
2022/04/08 10:41:53;;;;;;;10.93;2.17;;;16.80;99.90;;;;;;6096285;23;20501;-90
2022/04/08 10:44:37;;;;;;;8.52;1.70;;;16.30;99.90;;;;;;6096670;23;20014;-90
2022/04/08 10:47:16;;;;;;;15.95;2.58;;;15.30;99.90;;;;;;6095011;23;20022;-90
2022/04/08 10:50:02;;;;;;;16.45;2.40;;;14.90;99.90;;;;;;6096689;23;20497;-89
2022/04/08 10:52:30;;;;;;;15.48;2.83;;;15.10;99.90;;;;;;6046917;23;20030;-90
2022/04/08 10:55:16;;;;;;;9.65;2.58;;;14.40;99.90;;;;;;6096410;23;20038;-88
2022/04/08 10:57:43;;;;;;;47.50;37.38;;;15.90;99.90;;;;;;6096555;23;20045;-89
2022/04/08 11:00:16;;;;;;;6.37;1.90;;;14.60;99.90;;;;;;6071143;23;20117;-88
2022/04/08 11:02:43;;;;;;;12.23;2.15;;;15.30;99.90;;;;;;6094998;23;20026;-90
2022/04/08 11:05:14;;;;;;;7.83;2.10;;;15.50;99.90;;;;;;6096667;23;20097;-89
2022/04/08 11:07:45;;;;;;;9.73;2.03;;;15.80;99.90;;;;;;6095899;23;21205;-89
2022/04/08 11:10:16;;;;;;;7.95;1.90;;;15.20;99.90;;;;;;6097098;23;20030;-89
2022/04/08 11:12:49;;;;;;;8.85;1.95;;;15.20;99.90;;;;;;6070664;23;20025;-89
2022/04/08 11:15:17;;;;;;;6.90;1.95;;;15.30;99.90;;;;;;6072423;23;20019;-88
2022/04/08 11:17:43;;;;;;;;;;;15.70;99.90;;;;;;6094379;23;20022;-88
2022/04/08 11:20:17;;;;;;;10.52;1.80;;;16.10;99.90;;;;;;6095604;23;19917;-88
2022/04/08 11:22:48;;;;;;;7.95;2.22;;;15.60;99.90;;;;;;6096446;23;20021;-88
2022/04/08 11:25:24;;;;;;;11.10;1.88;;;14.90;99.90;;;;;;6070136;23;20077;-88
2022/04/08 11:28:17;;;;;;;6.82;1.50;;;16.00;99.90;;;;;;6070194;23;20019;-89
2022/04/08 11:30:44;;;;;;;9.38;1.58;;;13.60;99.90;;;;;;6068004;23;20033;-89
2022/04/08 11:33:15;;;;;;;4.50;1.50;;;12.90;99.90;;;;;;6093939;23;20023;-89
2022/04/08 11:35:43;;;;;;;6.55;1.60;;;12.40;99.90;;;;;;6070068;23;20022;-88
2022/04/08 11:38:17;;;;;;;9.85;1.83;;;13.70;99.90;;;;;;6096198;23;20422;-90
2022/04/08 11:40:44;;;;;;;6.28;1.67;;;14.30;99.90;;;;;;6096000;23;20382;-89
2022/04/08 11:43:18;;;;;;;9.05;2.00;;;12.60;99.90;;;;;;6095366;23;20450;-89
2022/04/08 11:45:45;;;;;;;6.13;1.55;;;13.40;99.90;;;;;;6069671;23;20026;-90
2022/04/08 11:48:15;;;;;;;6.03;1.33;;;14.30;99.90;;;;;;6069941;23;20057;-91
2022/04/08 11:50:42;;;;;;;10.80;1.98;;;15.10;99.90;;;;;;6094944;23;20018;-90
2022/04/08 11:53:16;;;;;;;7.03;1.13;;;14.90;99.90;;;;;;6070527;23;20101;-90
2022/04/08 11:56:01;;;;;;;8.38;1.52;;;15.10;99.90;;;;;;6069752;23;20366;-89
2022/04/08 11:58:33;;;;;;;7.35;1.63;;;14.90;99.90;;;;;;6095703;23;20022;-91
2022/04/08 12:01:07;;;;;;;8.27;1.60;;;12.90;99.90;;;;;;6047202;23;20030;-91
2022/04/08 12:03:39;;;;;;;9.18;1.70;;;15.10;99.90;;;;;;6069312;23;20022;-89
2022/04/08 12:06:08;;;;;;;8.18;1.70;;;15.10;99.90;;;;;;6069529;23;20018;-90
2022/04/08 12:08:34;;;;;;;5.97;1.50;;;15.40;99.90;;;;;;6069579;23;20453;-89
2022/04/08 12:11:07;;;;;;;6.07;1.35;;;15.60;99.90;;;;;;6070051;23;20153;-89
2022/04/08 12:13:34;;;;;;;6.90;1.60;;;16.10;99.90;;;;;;6095379;23;20342;-89
2022/04/08 12:15:59;;;;;;;6.13;1.52;;;16.60;99.90;;;;;;6046124;23;20050;-89
2022/04/08 12:18:27;;;;;;;9.52;1.90;;;17.00;99.90;;;;;;6069534;23;20446;-90
2022/04/08 12:20:56;;;;;;;5.25;1.77;;;16.90;99.90;;;;;;6095524;23;20029;-89
2022/04/08 12:23:24;;;;;;;10.40;1.88;;;16.50;99.90;;;;;;6069730;23;20026;-89
2022/04/08 12:25:54;;;;;;;5.20;1.50;;;16.00;99.90;;;;;;6045569;23;20415;-89
2022/04/08 12:28:31;;;;;;;3.67;1.25;;;15.60;99.90;;;;;;6095341;23;20022;-88
2022/04/08 12:30:58;;;;;;;5.80;1.58;;;15.50;99.90;;;;;;6069798;23;20165;-88
2022/04/08 12:33:24;;;;;;;7.32;1.40;;;15.50;99.90;;;;;;6092936;23;20023;-90
2022/04/08 12:35:50;;;;;;;7.82;1.65;;;15.30;99.90;;;;;;6094713;23;20204;-89
2022/04/08 12:38:19;;;;;;;8.27;1.80;;;15.30;99.90;;;;;;6095136;23;20046;-88
2022/04/08 12:40:49;;;;;;;9.00;1.50;;;15.10;99.90;;;;;;6045686;23;20026;-88
2022/04/08 12:43:15;;;;;;;7.15;1.73;;;15.00;99.90;;;;;;6069767;23;20023;-89
2022/04/08 12:45:41;;;;;;;4.60;1.38;;;14.90;99.90;;;;;;6093961;23;20018;-88
2022/04/08 12:48:08;;;;;;;5.57;1.52;;;14.80;99.90;;;;;;6068690;23;20359;-88
2022/04/08 12:50:34;;;;;;;8.45;1.77;;;14.60;99.90;;;;;;6092446;23;20391;-90
2022/04/08 12:53:02;;;;;;;6.47;1.83;;;14.30;99.90;;;;;;6045801;23;20118;-88